sensor_id;sensor_type;location;lat;lon;timestamp;pressure;altitude;pressure_sealevel;temperature;humidity
8398;BME280;4236;54.504;9.588;2023-09-08T00:01:02;102255.94;;;17.97;100.00
8398;BME280;4236;54.504;9.588;2023-09-08T00:03:30;102256.97;;;17.96;100.00
8398;BME280;4236;54.504;9.588;2023-09-08T00:05:58;102257.19;;;17.94;100.00
8398;BME280;4236;54.504;9.588;2023-09-08T00:08:26;102252.00;;;17.93;100.00
8398;BME280;4236;54.504;9.588;2023-09-08T00:10:54;102247.84;;;17.90;100.00
8398;BME280;4236;54.504;9.588;2023-09-08T00:13:21;102245.38;;;17.89;100.00
8398;BME280;4236;54.504;9.588;2023-09-08T00:15:50;102248.06;;;17.89;100.00
8398;BME280;4236;54.504;9.588;2023-09-08T00:18:18;102256.59;;;17.86;100.00
8398;BME280;4236;54.504;9.588;2023-09-08T00:20:46;102248.06;;;17.82;100.00
8398;BME280;4236;54.504;9.588;2023-09-08T00:23:14;102244.53;;;17.82;100.00
8398;BME280;4236;54.504;9.588;2023-09-08T00:25:42;102252.81;;;17.80;100.00
8398;BME280;4236;54.504;9.588;2023-09-08T00:28:09;102242.44;;;17.77;100.00
8398;BME280;4236;54.504;9.588;2023-09-08T00:30:37;102241.00;;;17.75;100.00
8398;BME280;4236;54.504;9.588;2023-09-08T00:33:06;102243.06;;;17.73;100.00
8398;BME280;4236;54.504;9.588;2023-09-08T00:35:35;102238.94;;;17.70;100.00
8398;BME280;4236;54.504;9.588;2023-09-08T00:38:03;102237.47;;;17.67;100.00
8398;BME280;4236;54.504;9.588;2023-09-08T00:40:31;102243.28;;;17.64;100.00
8398;BME280;4236;54.504;9.588;2023-09-08T00:42:59;102249.09;;;17.61;100.00
8398;BME280;4236;54.504;9.588;2023-09-08T00:45:29;102237.03;;;17.57;100.00
8398;BME280;4236;54.504;9.588;2023-09-08T00:47:58;102238.28;;;17.55;100.00
8398;BME280;4236;54.504;9.588;2023-09-08T00:50:27;102240.34;;;17.53;100.00
8398;BME280;4236;54.504;9.588;2023-09-08T00:52:55;102238.06;;;17.50;100.00
8398;BME280;4236;54.504;9.588;2023-09-08T00:55:23;102232.03;;;17.48;100.00
8398;BME280;4236;54.504;9.588;2023-09-08T00:57:50;102230.56;;;17.45;100.00
8398;BME280;4236;54.504;9.588;2023-09-08T01:00:18;102227.44;;;17.42;100.00
8398;BME280;4236;54.504;9.588;2023-09-08T01:02:46;102220.41;;;17.41;100.00
8398;BME280;4236;54.504;9.588;2023-09-08T01:05:14;102222.47;;;17.39;100.00
8398;BME280;4236;54.504;9.588;2023-09-08T01:07:44;102218.31;;;17.36;100.00
8398;BME280;4236;54.504;9.588;2023-09-08T01:10:13;102227.88;;;17.32;100.00
8398;BME280;4236;54.504;9.588;2023-09-08T01:12:42;102220.19;;;17.29;100.00
8398;BME280;4236;54.504;9.588;2023-09-08T01:15:10;102230.34;;;17.27;100.00
8398;BME280;4236;54.504;9.588;2023-09-08T01:17:38;102216.41;;;17.24;100.00
8398;BME280;4236;54.504;9.588;2023-09-08T01:20:13;102218.50;;;17.22;100.00
8398;BME280;4236;54.504;9.588;2023-09-08T01:23:19;102214.53;;;17.17;100.00
8398;BME280;4236;54.504;9.588;2023-09-08T01:25:52;102219.13;;;17.17;100.00
8398;BME280;4236;54.504;9.588;2023-09-08T01:28:23;102224.72;;;17.15;100.00
8398;BME280;4236;54.504;9.588;2023-09-08T01:30:52;102221.41;;;17.13;100.00
8398;BME280;4236;54.504;9.588;2023-09-08T01:33:21;102216.41;;;17.10;100.00
8398;BME280;4236;54.504;9.588;2023-09-08T01:35:49;102213.06;;;17.08;100.00
8398;BME280;4236;54.504;9.588;2023-09-08T01:38:17;102204.59;;;17.05;100.00
8398;BME280;4236;54.504;9.588;2023-09-08T01:40:45;102211.59;;;16.99;100.00
8398;BME280;4236;54.504;9.588;2023-09-08T01:43:14;102216.59;;;16.96;100.00
8398;BME280;4236;54.504;9.588;2023-09-08T01:45:42;102215.13;;;16.93;100.00
8398;BME280;4236;54.504;9.588;2023-09-08T01:48:10;102210.16;;;16.90;100.00
8398;BME280;4236;54.504;9.588;2023-09-08T01:50:37;102214.88;;;16.88;100.00
8398;BME280;4236;54.504;9.588;2023-09-08T01:53:05;102209.91;;;16.85;100.00
8398;BME280;4236;54.504;9.588;2023-09-08T01:55:33;102205.75;;;16.83;100.00
8398;BME280;4236;54.504;9.588;2023-09-08T01:58:01;102202.44;;;16.81;100.00
8398;BME280;4236;54.504;9.588;2023-09-08T02:00:30;102210.28;;;16.76;100.00
8398;BME280;4236;54.504;9.588;2023-09-08T02:02:58;102202.81;;;16.71;100.00
8398;BME280;4236;54.504;9.588;2023-09-08T02:05:26;102198.44;;;16.70;100.00
8398;BME280;4236;54.504;9.588;2023-09-08T02:07:54;102193.72;;;16.72;100.00
8398;BME280;4236;54.504;9.588;2023-09-08T02:10:23;102198.25;;;16.72;100.00
8398;BME280;4236;54.504;9.588;2023-09-08T02:12:52;102193.28;;;16.69;100.00
8398;BME280;4236;54.504;9.588;2023-09-08T02:15:20;102191.41;;;16.69;100.00
8398;BME280;4236;54.504;9.588;2023-09-08T02:17:52;102190.38;;;16.70;100.00
8398;BME280;4236;54.504;9.588;2023-09-08T02:20:20;102187.88;;;16.69;100.00
8398;BME280;4236;54.504;9.588;2023-09-08T02:22:49;102190.59;;;16.69;100.00
8398;BME280;4236;54.504;9.588;2023-09-08T02:25:17;102185.38;;;16.67;100.00
8398;BME280;4236;54.504;9.588;2023-09-08T02:27:45;102193.03;;;16.64;100.00
8398;BME280;4236;54.504;9.588;2023-09-08T02:30:12;102183.72;;;16.59;100.00
8398;BME280;4236;54.504;9.588;2023-09-08T02:32:40;102188.03;;;16.54;100.00
8398;BME280;4236;54.504;9.588;2023-09-08T02:35:11;102180.50;;;16.49;100.00
8398;BME280;4236;54.504;9.588;2023-09-08T02:37:39;102174.91;;;16.44;100.00
8398;BME280;4236;54.504;9.588;2023-09-08T02:40:07;102172.81;;;16.40;100.00
8398;BME280;4236;54.504;9.588;2023-09-08T02:42:35;102169.28;;;16.33;100.00
8398;BME280;4236;54.504;9.588;2023-09-08T02:45:03;102178.13;;;16.27;100.00
8398;BME280;4236;54.504;9.588;2023-09-08T02:47:31;102166.31;;;16.21;100.00
8398;BME280;4236;54.504;9.588;2023-09-08T02:49:58;102157.19;;;16.16;100.00
8398;BME280;4236;54.504;9.588;2023-09-08T02:52:28;102162.13;;;16.12;100.00
8398;BME280;4236;54.504;9.588;2023-09-08T02:54:55;102163.53;;;16.08;100.00
8398;BME280;4236;54.504;9.588;2023-09-08T02:57:23;102160.84;;;16.08;100.00
8398;BME280;4236;54.504;9.588;2023-09-08T02:59:51;102158.38;;;16.07;100.00
8398;BME280;4236;54.504;9.588;2023-09-08T03:02:18;102159.00;;;16.09;100.00
8398;BME280;4236;54.504;9.588;2023-09-08T03:04:46;102164.81;;;16.12;100.00
8398;BME280;4236;54.504;9.588;2023-09-08T03:07:14;102160.69;;;16.16;100.00
8398;BME280;4236;54.504;9.588;2023-09-08T03:09:43;102163.19;;;16.18;100.00
8398;BME280;4236;54.504;9.588;2023-09-08T03:12:11;102157.59;;;16.19;100.00
8398;BME280;4236;54.504;9.588;2023-09-08T03:14:39;102154.28;;;16.17;100.00
8398;BME280;4236;54.504;9.588;2023-09-08T03:17:07;102153.66;;;16.15;100.00
8398;BME280;4236;54.504;9.588;2023-09-08T03:19:34;102151.78;;;16.16;100.00
8398;BME280;4236;54.504;9.588;2023-09-08T03:22:03;102145.38;;;16.17;100.00
8398;BME280;4236;54.504;9.588;2023-09-08T03:24:30;102150.69;;;16.10;100.00
8398;BME280;4236;54.504;9.588;2023-09-08T03:26:59;102141.16;;;16.08;100.00
8398;BME280;4236;54.504;9.588;2023-09-08T03:29:27;102141.97;;;16.01;100.00
8398;BME280;4236;54.504;9.588;2023-09-08T03:31:55;102140.31;;;16.00;100.00
8398;BME280;4236;54.504;9.588;2023-09-08T03:34:23;102133.44;;;15.98;100.00
8398;BME280;4236;54.504;9.588;2023-09-08T03:36:53;102136.97;;;15.98;100.00
8398;BME280;4236;54.504;9.588;2023-09-08T03:39:20;102136.78;;;16.00;100.00
8398;BME280;4236;54.504;9.588;2023-09-08T03:41:48;102138.03;;;15.97;100.00
8398;BME280;4236;54.504;9.588;2023-09-08T03:44:17;102127.06;;;15.99;100.00
8398;BME280;4236;54.504;9.588;2023-09-08T03:46:45;102126.03;;;16.00;100.00
8398;BME280;4236;54.504;9.588;2023-09-08T03:49:13;102129.34;;;16.02;100.00
8398;BME280;4236;54.504;9.588;2023-09-08T03:51:41;102137.03;;;16.05;100.00
8398;BME280;4236;54.504;9.588;2023-09-08T03:54:08;102122.09;;;16.02;100.00
8398;BME280;4236;54.504;9.588;2023-09-08T03:56:36;102113.41;;;16.00;100.00
8398;BME280;4236;54.504;9.588;2023-09-08T03:59:04;102118.59;;;16.02;100.00
8398;BME280;4236;54.504;9.588;2023-09-08T04:01:33;102122.28;;;16.01;100.00
8398;BME280;4236;54.504;9.588;2023-09-08T04:04:00;102117.13;;;15.99;100.00
8398;BME280;4236;54.504;9.588;2023-09-08T04:06:28;102115.28;;;16.00;100.00
8398;BME280;4236;54.504;9.588;2023-09-08T04:08:56;102117.75;;;16.01;100.00
8398;BME280;4236;54.504;9.588;2023-09-08T04:11:24;102109.88;;;16.00;100.00
8398;BME280;4236;54.504;9.588;2023-09-08T04:13:52;102107.38;;;15.98;100.00
8398;BME280;4236;54.504;9.588;2023-09-08T04:16:19;102114.63;;;15.98;100.00
8398;BME280;4236;54.504;9.588;2023-09-08T04:18:48;102114.00;;;15.96;100.00
8398;BME280;4236;54.504;9.588;2023-09-08T04:21:19;102112.31;;;15.95;100.00
8398;BME280;4236;54.504;9.588;2023-09-08T04:23:47;102114.41;;;15.93;100.00
8398;BME280;4236;54.504;9.588;2023-09-08T04:26:15;102105.47;;;15.92;100.00
8398;BME280;4236;54.504;9.588;2023-09-08T04:28:42;102105.47;;;15.92;100.00
8398;BME280;4236;54.504;9.588;2023-09-08T04:31:10;102102.19;;;15.90;100.00
8398;BME280;4236;54.504;9.588;2023-09-08T04:33:38;102102.78;;;15.92;100.00
8398;BME280;4236;54.504;9.588;2023-09-08T04:36:07;102100.31;;;15.91;100.00
8398;BME280;4236;54.504;9.588;2023-09-08T04:38:37;102100.31;;;15.91;100.00
8398;BME280;4236;54.504;9.588;2023-09-08T04:41:05;102107.56;;;15.90;100.00
8398;BME280;4236;54.504;9.588;2023-09-08T04:43:33;102096.78;;;15.90;100.00
8398;BME280;4236;54.504;9.588;2023-09-08T04:46:00;102099.28;;;15.92;100.00
8398;BME280;4236;54.504;9.588;2023-09-08T04:48:29;102107.16;;;15.93;100.00
8398;BME280;4236;54.504;9.588;2023-09-08T04:50:57;102094.53;;;15.94;100.00
8398;BME280;4236;54.504;9.588;2023-09-08T04:53:26;102103.44;;;15.94;100.00
8398;BME280;4236;54.504;9.588;2023-09-08T04:55:54;102099.31;;;15.98;100.00
8398;BME280;4236;54.504;9.588;2023-09-08T04:58:22;102093.94;;;15.98;100.00
8398;BME280;4236;54.504;9.588;2023-09-08T05:00:49;102098.91;;;16.01;100.00
8398;BME280;4236;54.504;9.588;2023-09-08T05:03:17;102095.44;;;16.08;100.00
8398;BME280;4236;54.504;9.588;2023-09-08T05:05:45;102093.59;;;16.15;100.00
8398;BME280;4236;54.504;9.588;2023-09-08T05:08:13;102102.94;;;16.25;100.00
8398;BME280;4236;54.504;9.588;2023-09-08T05:10:43;102104.88;;;16.38;100.00
8398;BME280;4236;54.504;9.588;2023-09-08T05:13:11;102113.06;;;16.57;100.00
8398;BME280;4236;54.504;9.588;2023-09-08T05:15:56;102111.25;;;16.78;100.00
8398;BME280;4236;54.504;9.588;2023-09-08T05:18:26;102113.34;;;16.95;100.00
8398;BME280;4236;54.504;9.588;2023-09-08T05:20:54;102114.38;;;17.01;100.00
8398;BME280;4236;54.504;9.588;2023-09-08T05:23:22;102107.56;;;17.05;100.00
8398;BME280;4236;54.504;9.588;2023-09-08T05:25:51;102115.00;;;17.09;100.00
8398;BME280;4236;54.504;9.588;2023-09-08T05:28:19;102113.34;;;17.15;100.00
8398;BME280;4236;54.504;9.588;2023-09-08T05:30:47;102107.56;;;17.18;100.00
8398;BME280;4236;54.504;9.588;2023-09-08T05:33:14;102104.66;;;17.46;100.00
8398;BME280;4236;54.504;9.588;2023-09-08T05:35:42;102121.72;;;18.30;100.00
8398;BME280;4236;54.504;9.588;2023-09-08T05:38:10;102118.97;;;19.12;100.00
8398;BME280;4236;54.504;9.588;2023-09-08T05:40:38;102112.34;;;20.01;100.00
8398;BME280;4236;54.504;9.588;2023-09-08T05:43:07;102116.31;;;20.94;100.00
8398;BME280;4236;54.504;9.588;2023-09-08T05:45:35;102103.81;;;21.69;100.00
8398;BME280;4236;54.504;9.588;2023-09-08T05:48:03;102093.75;;;22.44;100.00
8398;BME280;4236;54.504;9.588;2023-09-08T05:50:31;102071.22;;;23.05;100.00
8398;BME280;4236;54.504;9.588;2023-09-08T05:52:58;102047.53;;;23.56;100.00
8398;BME280;4236;54.504;9.588;2023-09-08T05:55:26;102038.75;;;24.14;100.00
8398;BME280;4236;54.504;9.588;2023-09-08T05:57:54;102031.88;;;24.60;100.00
8398;BME280;4236;54.504;9.588;2023-09-08T06:00:23;102039.63;;;25.00;100.00
8398;BME280;4236;54.504;9.588;2023-09-08T06:02:50;102036.00;;;25.31;100.00
8398;BME280;4236;54.504;9.588;2023-09-08T06:05:18;102033.34;;;25.83;100.00
8398;BME280;4236;54.504;9.588;2023-09-08T06:07:46;102039.56;;;26.46;100.00
8398;BME280;4236;54.504;9.588;2023-09-08T06:10:31;102037.97;;;26.95;100.00
8398;BME280;4236;54.504;9.588;2023-09-08T06:12:59;102041.22;;;27.32;100.00
8398;BME280;4236;54.504;9.588;2023-09-08T06:15:29;102026.91;;;27.71;100.00
8398;BME280;4236;54.504;9.588;2023-09-08T06:17:57;102028.09;;;28.09;100.00
8398;BME280;4236;54.504;9.588;2023-09-08T06:20:24;102023.53;;;28.38;100.00
8398;BME280;4236;54.504;9.588;2023-09-08T06:22:53;102027.22;;;28.67;100.00
8398;BME280;4236;54.504;9.588;2023-09-08T06:25:21;102030.03;;;28.91;100.00
8398;BME280;4236;54.504;9.588;2023-09-08T06:27:48;102020.59;;;29.31;100.00
8398;BME280;4236;54.504;9.588;2023-09-08T06:30:16;102022.81;;;29.29;100.00
8398;BME280;4236;54.504;9.588;2023-09-08T06:32:46;102025.75;;;29.08;80.02
8398;BME280;4236;54.504;9.588;2023-09-08T06:35:14;102023.75;;;29.43;98.41
8398;BME280;4236;54.504;9.588;2023-09-08T06:37:41;102017.75;;;29.64;97.64
8398;BME280;4236;54.504;9.588;2023-09-08T06:40:09;102016.09;;;29.87;93.93
8398;BME280;4236;54.504;9.588;2023-09-08T06:42:37;102023.84;;;29.85;85.80
8398;BME280;4236;54.504;9.588;2023-09-08T06:45:06;102022.22;;;30.03;90.54
8398;BME280;4236;54.504;9.588;2023-09-08T06:47:34;102020.44;;;30.12;89.18
8398;BME280;4236;54.504;9.588;2023-09-08T06:50:04;102023.78;;;30.28;84.24
8398;BME280;4236;54.504;9.588;2023-09-08T06:52:33;102015.47;;;30.33;88.62
8398;BME280;4236;54.504;9.588;2023-09-08T06:55:01;102020.16;;;30.13;84.29
8398;BME280;4236;54.504;9.588;2023-09-08T06:57:29;102012.34;;;30.21;84.52
8398;BME280;4236;54.504;9.588;2023-09-08T06:59:57;102023.94;;;30.36;86.69
8398;BME280;4236;54.504;9.588;2023-09-08T07:02:24;102013.09;;;30.45;82.56
8398;BME280;4236;54.504;9.588;2023-09-08T07:04:52;102024.41;;;30.25;75.44
8398;BME280;4236;54.504;9.588;2023-09-08T07:07:22;102024.38;;;30.06;75.58
8398;BME280;4236;54.504;9.588;2023-09-08T07:09:50;102017.09;;;29.49;73.32
8398;BME280;4236;54.504;9.588;2023-09-08T07:12:18;102019.41;;;29.42;73.84
8398;BME280;4236;54.504;9.588;2023-09-08T07:14:45;102020.66;;;29.26;75.18
8398;BME280;4236;54.504;9.588;2023-09-08T07:17:14;102020.41;;;28.93;77.00
8398;BME280;4236;54.504;9.588;2023-09-08T07:19:42;102025.28;;;28.68;73.39
8398;BME280;4236;54.504;9.588;2023-09-08T07:22:10;102023.41;;;28.14;73.20
8398;BME280;4236;54.504;9.588;2023-09-08T07:24:39;102021.66;;;27.79;73.79
8398;BME280;4236;54.504;9.588;2023-09-08T07:27:07;102017.88;;;27.60;83.95
8398;BME280;4236;54.504;9.588;2023-09-08T07:29:35;102028.59;;;27.36;84.51
8398;BME280;4236;54.504;9.588;2023-09-08T07:32:03;102017.13;;;27.09;87.30
8398;BME280;4236;54.504;9.588;2023-09-08T07:34:31;102008.97;;;26.84;91.26
8398;BME280;4236;54.504;9.588;2023-09-08T07:36:59;102008.34;;;26.47;91.73
8398;BME280;4236;54.504;9.588;2023-09-08T07:39:27;102012.97;;;26.21;94.03
8398;BME280;4236;54.504;9.588;2023-09-08T07:41:56;102009.69;;;26.19;98.54
8398;BME280;4236;54.504;9.588;2023-09-08T07:44:27;102006.13;;;26.28;100.00
8398;BME280;4236;54.504;9.588;2023-09-08T07:46:55;102002.63;;;26.43;100.00
8398;BME280;4236;54.504;9.588;2023-09-08T07:49:23;102003.44;;;26.38;95.53
8398;BME280;4236;54.504;9.588;2023-09-08T07:51:51;102009.75;;;26.59;98.25
8398;BME280;4236;54.504;9.588;2023-09-08T07:54:18;102011.44;;;26.80;94.12
8398;BME280;4236;54.504;9.588;2023-09-08T07:56:46;102003.47;;;27.04;95.03
8398;BME280;4236;54.504;9.588;2023-09-08T07:59:16;102007.00;;;27.25;93.76
8398;BME280;4236;54.504;9.588;2023-09-08T08:01:43;102005.38;;;27.24;91.96
8398;BME280;4236;54.504;9.588;2023-09-08T08:04:11;102005.38;;;27.14;89.20
8398;BME280;4236;54.504;9.588;2023-09-08T08:06:39;102007.59;;;26.97;90.88
8398;BME280;4236;54.504;9.588;2023-09-08T08:09:07;101999.63;;;26.55;92.70
8398;BME280;4236;54.504;9.588;2023-09-08T08:11:35;101998.22;;;26.27;95.31
8398;BME280;4236;54.504;9.588;2023-09-08T08:14:03;102000.88;;;26.12;97.82
8398;BME280;4236;54.504;9.588;2023-09-08T08:16:32;101997.28;;;25.96;97.21
8398;BME280;4236;54.504;9.588;2023-09-08T08:19:01;102000.53;;;25.83;100.00
8398;BME280;4236;54.504;9.588;2023-09-08T08:21:29;102002.44;;;25.82;99.72
8398;BME280;4236;54.504;9.588;2023-09-08T08:23:57;101999.97;;;25.76;100.00
8398;BME280;4236;54.504;9.588;2023-09-08T08:26:25;101991.75;;;25.76;100.00
8398;BME280;4236;54.504;9.588;2023-09-08T08:28:56;101991.22;;;25.79;100.00
8398;BME280;4236;54.504;9.588;2023-09-08T08:31:24;101989.06;;;25.91;100.00
8398;BME280;4236;54.504;9.588;2023-09-08T08:33:53;101988.44;;;25.69;100.00
8398;BME280;4236;54.504;9.588;2023-09-08T08:36:20;101984.09;;;25.73;100.00
8398;BME280;4236;54.504;9.588;2023-09-08T08:38:48;101982.78;;;25.91;100.00
8398;BME280;4236;54.504;9.588;2023-09-08T08:41:16;101981.97;;;25.90;100.00
8398;BME280;4236;54.504;9.588;2023-09-08T08:43:44;101969.41;;;25.99;100.00
8398;BME280;4236;54.504;9.588;2023-09-08T08:46:14;101968.06;;;26.02;100.00
8398;BME280;4236;54.504;9.588;2023-09-08T08:48:42;101963.47;;;26.22;100.00
8398;BME280;4236;54.504;9.588;2023-09-08T08:51:12;101959.38;;;26.20;100.00
8398;BME280;4236;54.504;9.588;2023-09-08T08:53:41;101965.44;;;26.37;100.00
8398;BME280;4236;54.504;9.588;2023-09-08T08:56:10;101958.31;;;26.41;100.00
8398;BME280;4236;54.504;9.588;2023-09-08T08:58:39;101961.31;;;26.60;100.00
8398;BME280;4236;54.504;9.588;2023-09-08T09:01:07;101962.16;;;26.55;100.00
8398;BME280;4236;54.504;9.588;2023-09-08T09:03:39;101955.56;;;26.56;100.00
8398;BME280;4236;54.504;9.588;2023-09-08T09:06:09;101961.34;;;26.55;98.23
8398;BME280;4236;54.504;9.588;2023-09-08T09:08:39;101952.84;;;26.46;98.24
8398;BME280;4236;54.504;9.588;2023-09-08T09:11:07;101951.47;;;26.64;100.00
8398;BME280;4236;54.504;9.588;2023-09-08T09:13:35;101950.09;;;26.66;97.40
8398;BME280;4236;54.504;9.588;2023-09-08T09:16:03;101935.84;;;26.64;96.17
8398;BME280;4236;54.504;9.588;2023-09-08T09:18:34;101942.75;;;26.82;97.77
8398;BME280;4236;54.504;9.588;2023-09-08T09:21:02;101931.44;;;27.04;97.24
8398;BME280;4236;54.504;9.588;2023-09-08T09:23:31;101936.06;;;27.23;97.38
8398;BME280;4236;54.504;9.588;2023-09-08T09:26:03;101930.59;;;27.23;93.82
8398;BME280;4236;54.504;9.588;2023-09-08T09:28:31;101928.59;;;27.39;95.73
8398;BME280;4236;54.504;9.588;2023-09-08T09:30:59;101937.38;;;27.46;96.59
8398;BME280;4236;54.504;9.588;2023-09-08T09:33:27;101941.50;;;27.38;96.45
8398;BME280;4236;54.504;9.588;2023-09-08T09:35:56;101943.16;;;27.44;93.96
8398;BME280;4236;54.504;9.588;2023-09-08T09:38:26;101948.06;;;27.42;94.44
8398;BME280;4236;54.504;9.588;2023-09-08T09:40:55;101953.81;;;27.41;93.74
8398;BME280;4236;54.504;9.588;2023-09-08T09:43:24;101951.34;;;27.50;93.68
8398;BME280;4236;54.504;9.588;2023-09-08T09:45:55;101954.53;;;27.67;94.05
8398;BME280;4236;54.504;9.588;2023-09-08T09:48:23;101950.13;;;27.76;92.94
8398;BME280;4236;54.504;9.588;2023-09-08T09:50:51;101945.47;;;27.76;90.40
8398;BME280;4236;54.504;9.588;2023-09-08T09:53:20;101944.94;;;27.69;91.81
8398;BME280;4236;54.504;9.588;2023-09-08T09:55:48;101944.50;;;28.01;93.54
8398;BME280;4236;54.504;9.588;2023-09-08T09:58:15;101949.72;;;27.97;87.72
8398;BME280;4236;54.504;9.588;2023-09-08T10:00:46;101945.84;;;28.09;91.32
8398;BME280;4236;54.504;9.588;2023-09-08T10:03:16;101943.00;;;28.24;90.99
8398;BME280;4236;54.504;9.588;2023-09-08T10:05:46;101933.09;;;28.23;86.47
8398;BME280;4236;54.504;9.588;2023-09-08T10:08:16;101933.09;;;28.23;88.72
8398;BME280;4236;54.504;9.588;2023-09-08T10:10:45;101931.63;;;28.40;87.53
8398;BME280;4236;54.504;9.588;2023-09-08T10:13:17;101928.53;;;28.47;83.97
8398;BME280;4236;54.504;9.588;2023-09-08T10:15:50;101937.16;;;28.69;84.58
8398;BME280;4236;54.504;9.588;2023-09-08T10:18:20;101927.09;;;28.54;83.82
8398;BME280;4236;54.504;9.588;2023-09-08T10:20:51;101923.53;;;28.54;86.62
8398;BME280;4236;54.504;9.588;2023-09-08T10:23:22;101919.72;;;28.50;83.23
8398;BME280;4236;54.504;9.588;2023-09-08T10:25:53;101921.44;;;28.46;82.59
8398;BME280;4236;54.504;9.588;2023-09-08T10:28:26;101918.78;;;28.65;78.30
8398;BME280;4236;54.504;9.588;2023-09-08T10:30:57;101909.38;;;28.76;81.08
8398;BME280;4236;54.504;9.588;2023-09-08T10:33:25;101911.91;;;28.96;79.19
8398;BME280;4236;54.504;9.588;2023-09-08T10:35:53;101912.34;;;28.79;76.72
8398;BME280;4236;54.504;9.588;2023-09-08T10:38:23;101908.03;;;28.73;78.24
8398;BME280;4236;54.504;9.588;2023-09-08T10:40:51;101906.69;;;28.94;75.23
8398;BME280;4236;54.504;9.588;2023-09-08T10:43:19;101907.06;;;29.12;76.39
8398;BME280;4236;54.504;9.588;2023-09-08T10:45:47;101916.63;;;29.14;73.42
8398;BME280;4236;54.504;9.588;2023-09-08T10:48:16;101918.97;;;29.02;74.65
8398;BME280;4236;54.504;9.588;2023-09-08T10:50:47;101912.72;;;29.20;74.27
8398;BME280;4236;54.504;9.588;2023-09-08T10:53:16;101918.81;;;29.17;70.04
8398;BME280;4236;54.504;9.588;2023-09-08T10:55:45;101926.16;;;29.27;68.62
8398;BME280;4236;54.504;9.588;2023-09-08T10:58:36;101919.50;;;29.28;68.08
8398;BME280;4236;54.504;9.588;2023-09-08T11:01:05;101915.34;;;29.30;69.21
8398;BME280;4236;54.504;9.588;2023-09-08T11:03:46;101912.38;;;29.03;65.11
8398;BME280;4236;54.504;9.588;2023-09-08T11:06:17;101906.34;;;29.01;68.41
8398;BME280;4236;54.504;9.588;2023-09-08T11:08:46;101904.47;;;29.20;69.45
8398;BME280;4236;54.504;9.588;2023-09-08T11:11:16;101892.09;;;29.23;67.80
8398;BME280;4236;54.504;9.588;2023-09-08T11:13:44;101892.94;;;29.23;68.91
8398;BME280;4236;54.504;9.588;2023-09-08T11:16:14;101902.59;;;29.39;67.78
8398;BME280;4236;54.504;9.588;2023-09-08T11:18:44;101896.72;;;29.27;63.70
8398;BME280;4236;54.504;9.588;2023-09-08T11:21:11;101897.25;;;29.29;65.55
8398;BME280;4236;54.504;9.588;2023-09-08T11:23:40;101900.53;;;29.31;65.49
8398;BME280;4236;54.504;9.588;2023-09-08T11:26:07;101896.09;;;29.35;63.39
8398;BME280;4236;54.504;9.588;2023-09-08T11:28:36;101894.94;;;29.36;65.66
8398;BME280;4236;54.504;9.588;2023-09-08T11:31:05;101894.38;;;29.39;62.44
8398;BME280;4236;54.504;9.588;2023-09-08T11:33:34;101893.78;;;29.42;62.02
8398;BME280;4236;54.504;9.588;2023-09-08T11:36:13;101889.13;;;29.61;64.29
8398;BME280;4236;54.504;9.588;2023-09-08T11:38:43;101889.19;;;29.75;64.26
8398;BME280;4236;54.504;9.588;2023-09-08T11:41:11;101897.50;;;29.51;57.75
8398;BME280;4236;54.504;9.588;2023-09-08T11:43:39;101888.22;;;29.66;60.35
8398;BME280;4236;54.504;9.588;2023-09-08T11:46:07;101879.38;;;29.69;60.07
8398;BME280;4236;54.504;9.588;2023-09-08T11:48:37;101879.69;;;29.68;59.14
8398;BME280;4236;54.504;9.588;2023-09-08T11:51:06;101877.16;;;29.71;60.32
8398;BME280;4236;54.504;9.588;2023-09-08T11:53:36;101878.72;;;29.58;60.22
8398;BME280;4236;54.504;9.588;2023-09-08T11:56:05;101875.81;;;29.50;57.08
8398;BME280;4236;54.504;9.588;2023-09-08T11:58:33;101884.94;;;29.45;59.74
8398;BME280;4236;54.504;9.588;2023-09-08T12:01:02;101882.16;;;29.50;60.19
8398;BME280;4236;54.504;9.588;2023-09-08T12:03:31;101864.47;;;29.56;60.49
8398;BME280;4236;54.504;9.588;2023-09-08T12:05:59;101870.59;;;29.48;59.09
8398;BME280;4236;54.504;9.588;2023-09-08T12:08:29;101873.47;;;29.62;59.81
8398;BME280;4236;54.504;9.588;2023-09-08T12:10:58;101874.34;;;29.76;61.36
8398;BME280;4236;54.504;9.588;2023-09-08T12:13:26;101867.72;;;29.96;61.31
8398;BME280;4236;54.504;9.588;2023-09-08T12:15:53;101876.16;;;29.86;58.86
8398;BME280;4236;54.504;9.588;2023-09-08T12:18:37;101871.00;;;29.98;58.93
8398;BME280;4236;54.504;9.588;2023-09-08T12:21:05;101867.13;;;29.99;60.86
8398;BME280;4236;54.504;9.588;2023-09-08T12:23:33;101860.28;;;30.15;61.40
8398;BME280;4236;54.504;9.588;2023-09-08T12:26:02;101854.38;;;30.22;60.43
8398;BME280;4236;54.504;9.588;2023-09-08T12:28:30;101855.03;;;30.32;61.05
8398;BME280;4236;54.504;9.588;2023-09-08T12:30:58;101846.53;;;30.29;59.94
8398;BME280;4236;54.504;9.588;2023-09-08T12:33:26;101835.63;;;30.24;60.23
8398;BME280;4236;54.504;9.588;2023-09-08T12:35:54;101847.56;;;30.19;60.01
8398;BME280;4236;54.504;9.588;2023-09-08T12:38:21;101832.94;;;30.37;60.26
8398;BME280;4236;54.504;9.588;2023-09-08T12:40:50;101829.00;;;30.43;59.04
8398;BME280;4236;54.504;9.588;2023-09-08T12:43:19;101826.66;;;30.50;57.90
8398;BME280;4236;54.504;9.588;2023-09-08T12:45:53;101831.16;;;30.46;59.54
8398;BME280;4236;54.504;9.588;2023-09-08T12:48:23;101834.69;;;30.47;59.06
8398;BME280;4236;54.504;9.588;2023-09-08T12:50:51;101815.84;;;30.54;56.71
8398;BME280;4236;54.504;9.588;2023-09-08T12:53:18;101828.22;;;30.38;57.52
8398;BME280;4236;54.504;9.588;2023-09-08T12:55:47;101814.78;;;30.36;57.40
8398;BME280;4236;54.504;9.588;2023-09-08T12:58:15;101812.41;;;30.30;57.81
8398;BME280;4236;54.504;9.588;2023-09-08T13:00:44;101815.75;;;30.45;59.72
8398;BME280;4236;54.504;9.588;2023-09-08T13:03:12;101808.31;;;30.46;58.73
8398;BME280;4236;54.504;9.588;2023-09-08T13:05:40;101805.47;;;30.32;59.17
8398;BME280;4236;54.504;9.588;2023-09-08T13:08:08;101804.06;;;30.35;59.06
8398;BME280;4236;54.504;9.588;2023-09-08T13:10:37;101805.41;;;30.37;58.47
8398;BME280;4236;54.504;9.588;2023-09-08T13:13:05;101806.31;;;30.33;58.58